Time;durP1;ratioP1;P1;durP2;ratioP2;P2;SDS_P1;SDS_P2;PMS_P1;PMS_P2;Temp;Humidity;BMP_temperature;BMP_pressure;BME280_temperature;BME280_humidity;BME280_pressure;Samples;Min_cycle;Max_cycle;Signal;HPM_P1;HPM_P2
2024/02/25 00:02:18;;;;;;;;;;;;;;;10.69;64.41;100236.69;4877484;29;19924;-79
2024/02/25 00:05:07;;;;;;;;;;;;;;;10.63;64.43;100240.72;4878435;29;19916;-79
2024/02/25 00:07:59;;;;;;;;;;;;;;;10.64;64.43;100240.41;4881930;29;19916;-80
2024/02/25 00:10:51;;;;;;;;;;;;;;;10.64;64.43;100234.16;4849646;29;20394;-79
2024/02/25 00:13:43;;;;;;;;;;;;;;;10.61;65.00;100237.56;4845747;29;20329;-79
2024/02/25 00:16:35;;;;;;;;;;;;;;;10.61;65.58;100240.28;4862784;29;19924;-79
2024/02/25 00:19:26;;;;;;;;;;;;;;;10.47;65.40;100236.94;4846399;29;19916;-78
2024/02/25 00:22:18;;;;;;;;;;;;;;;10.42;65.29;100240.66;4858804;29;19924;-78
2024/02/25 00:25:10;;;;;;;;;;;;;;;10.47;64.97;100250.53;4848027;29;19916;-79
2024/02/25 00:28:02;;;;;;;;;;;;;;;10.55;64.75;100252.44;4841372;29;19916;-79
2024/02/25 00:30:54;;;;;;;;;;;;;;;10.55;64.54;100252.44;4840323;29;19953;-79
2024/02/25 00:33:46;;;;;;;;;;;;;;;10.58;64.68;100251.78;4864169;29;19919;-78
2024/02/25 00:36:38;;;;;;;;;;;;;;;10.64;65.07;100250.47;4859465;29;20386;-78
2024/02/25 00:39:30;;;;;;;;;;;;;;;10.66;64.68;100256.41;4846674;29;19916;-78
2024/02/25 00:42:22;;;;;;;;;;;;;;;10.64;64.54;100254.00;4861915;29;19920;-79
2024/02/25 00:45:14;;;;;;;;;;;;;;;10.59;64.56;100258.81;4866921;29;19923;-78
2024/02/25 00:48:09;;;;;;;;;;;;;;;10.58;64.77;100258.03;4864533;29;20631;-78
2024/02/25 00:51:01;;;;;;;;;;;;;;;10.34;66.06;100263.22;4861426;29;19916;-79
2024/02/25 00:53:53;;;;;;;;;;;;;;;10.35;65.55;100256.69;4862359;29;20353;-81
2024/02/25 00:56:45;;;;;;;;;;;;;;;10.25;65.04;100263.25;4845389;29;19917;-81
2024/02/25 00:59:37;;;;;;;;;;;;;;;10.22;65.99;100263.88;4842594;29;19916;-79
2024/02/25 01:02:29;;;;;;;;;;;;;;;10.33;66.00;100258.09;4842852;29;19924;-78
2024/02/25 01:05:21;;;;;;;;;;;;;;;10.14;65.01;100259.25;4843345;29;19924;-80
2024/02/25 01:08:13;;;;;;;;;;;;;;;10.18;65.42;100254.00;4866185;29;19916;-79
2024/02/25 01:11:05;;;;;;;;;;;;;;;10.25;66.47;100262.47;4864291;29;19916;-80
2024/02/25 01:13:57;;;;;;;;;;;;;;;10.29;66.23;100257.97;4862226;29;19916;-79
2024/02/25 01:16:49;;;;;;;;;;;;;;;10.31;65.77;100253.00;4865492;29;20392;-79
2024/02/25 01:19:41;;;;;;;;;;;;;;;10.20;66.20;100252.56;4863811;29;19916;-79
2024/02/25 01:22:34;;;;;;;;;;;;;;;10.15;66.50;100249.19;4847852;29;19924;-80
2024/02/25 01:25:26;;;;;;;;;;;;;;;10.18;66.58;100243.94;4865030;29;19916;-80
2024/02/25 01:28:17;;;;;;;;;;;;;;;10.20;66.24;100251.75;4862490;29;19916;-79
2024/02/25 01:31:09;;;;;;;;;;;;;;;10.02;65.63;100233.88;4864026;29;20302;-79
2024/02/25 01:34:02;;;;;;;;;;;;;;;9.91;65.89;100238.84;4881458;29;19916;-78
2024/02/25 01:36:54;;;;;;;;;;;;;;;9.90;65.92;100245.41;4866532;29;19920;-79
2024/02/25 01:39:47;;;;;;;;;;;;;;;9.96;65.84;100243.28;4879108;29;19971;-78
2024/02/25 01:42:39;;;;;;;;;;;;;;;9.93;65.86;100242.03;4881491;29;19919;-78
2024/02/25 01:45:31;;;;;;;;;;;;;;;9.87;66.33;100240.59;4863209;29;19919;-78
2024/02/25 01:48:26;;;;;;;;;;;;;;;9.92;66.21;100229.56;4863926;29;19916;-79
2024/02/25 01:51:18;;;;;;;;;;;;;;;9.89;66.17;100235.66;4848427;29;19916;-78
2024/02/25 01:54:10;;;;;;;;;;;;;;;9.99;65.97;100240.75;4865014;29;20639;-79
2024/02/25 01:57:01;;;;;;;;;;;;;;;9.83;67.09;100245.09;4863290;29;19916;-79
2024/02/25 01:59:53;;;;;;;;;;;;;;;9.86;67.40;100244.44;4860952;29;19916;-78
2024/02/25 02:02:45;;;;;;;;;;;;;;;9.69;66.96;100242.56;4864476;29;19924;-79
2024/02/25 02:05:37;;;;;;;;;;;;;;;9.60;67.28;100247.16;4862159;29;19916;-79
2024/02/25 02:08:29;;;;;;;;;;;;;;;9.62;67.18;100249.56;4865311;29;20305;-79
2024/02/25 02:11:21;;;;;;;;;;;;;;;9.63;67.47;100243.03;4845629;29;19920;-78
2024/02/25 02:14:13;;;;;;;;;;;;;;;9.64;66.87;100245.44;4861410;29;20386;-78
2024/02/25 02:17:05;;;;;;;;;;;;;;;9.62;67.53;100244.13;4864512;29;19920;-79
2024/02/25 02:19:57;;;;;;;;;;;;;;;9.58;68.24;100251.34;4862650;29;19920;-79
2024/02/25 02:22:49;;;;;;;;;;;;;;;9.72;67.40;100251.97;4860700;29;19919;-79
2024/02/25 02:25:41;;;;;;;;;;;;;;;9.62;68.24;100255.00;4863820;29;19920;-78
2024/02/25 02:28:33;;;;;;;;;;;;;;;9.64;66.72;100245.44;4861872;29;19916;-78
2024/02/25 02:31:25;;;;;;;;;;;;;;;9.63;66.29;100246.53;4859714;29;19920;-78
2024/02/25 02:34:17;;;;;;;;;;;;;;;9.56;68.59;100238.06;4877404;29;19920;-81
2024/02/25 02:37:11;;;;;;;;;;;;;;;9.56;67.82;100238.06;4879522;29;19916;-79
2024/02/25 02:40:04;;;;;;;;;;;;;;;9.61;67.75;100234.41;4866701;29;19920;-79
2024/02/25 02:42:56;;;;;;;;;;;;;;;9.58;67.70;100240.47;4880677;29;20307;-79
2024/02/25 02:45:47;;;;;;;;;;;;;;;9.64;67.30;100234.56;4878690;29;19919;-79
2024/02/25 02:48:39;;;;;;;;;;;;;;;9.59;67.28;100242.88;4881766;29;19916;-79
2024/02/25 02:51:31;;;;;;;;;;;;;;;9.71;67.00;100244.94;4879936;29;20382;-79
2024/02/25 02:54:23;;;;;;;;;;;;;;;9.77;67.10;100246.38;4883637;29;19916;-78
2024/02/25 02:57:15;;;;;;;;;;;;;;;9.74;66.95;100236.97;4880759;29;19916;-79
2024/02/25 03:00:07;;;;;;;;;;;;;;;9.78;67.67;100237.91;4878795;29;19919;-79
2024/02/25 03:02:59;;;;;;;;;;;;;;;9.77;67.75;100241.72;4883732;29;19920;-78
2024/02/25 03:05:51;;;;;;;;;;;;;;;9.70;67.24;100235.22;4880201;29;19916;-79
2024/02/25 03:08:44;;;;;;;;;;;;;;;9.66;66.77;100239.66;4878023;29;20297;-79
2024/02/25 03:11:36;;;;;;;;;;;;;;;9.55;66.53;100241.13;4879828;29;19916;-79
2024/02/25 03:14:27;;;;;;;;;;;;;;;9.48;66.64;100243.50;4879646;29;20305;-80
2024/02/25 03:17:19;;;;;;;;;;;;;;;9.55;67.04;100238.41;4877670;29;19915;-79
2024/02/25 03:20:11;;;;;;;;;;;;;;;9.40;66.63;100239.66;4881047;29;19916;-79
2024/02/25 03:23:03;;;;;;;;;;;;;;;9.44;66.60;100236.03;4883871;29;19924;-78
2024/02/25 03:25:55;;;;;;;;;;;;;;;9.33;65.24;100240.16;4882153;29;19919;-79
2024/02/25 03:28:47;;;;;;;;;;;;;;;9.34;66.79;100236.34;4866550;29;19919;-78
2024/02/25 03:31:39;;;;;;;;;;;;;;;9.31;67.23;100242.38;4879588;29;20329;-80
2024/02/25 03:34:31;;;;;;;;;;;;;;;9.31;67.67;100236.16;4881413;29;19915;-79
2024/02/25 03:37:23;;;;;;;;;;;;;;;9.37;66.64;100227.53;4879116;29;19924;-78
2024/02/25 03:40:15;;;;;;;;;;;;;;;9.33;66.48;100236.66;4863060;29;20552;-79
2024/02/25 03:43:07;;;;;;;;;;;;;;;9.34;66.95;100233.63;4883176;29;19920;-79
2024/02/25 03:45:59;;;;;;;;;;;;;;;9.27;67.64;100236.00;4882952;29;19916;-78
2024/02/25 03:48:51;;;;;;;;;;;;;;;9.06;67.82;100236.91;4880880;29;19915;-79
2024/02/25 03:51:46;;;;;;;;;;;;;;;9.35;68.14;100237.91;4878623;29;19920;-79
2024/02/25 03:54:36;;;;;;;;;;;;;;;9.29;67.83;100241.91;4877190;29;19916;-78
2024/02/25 03:57:28;;;;;;;;;;;;;;;9.20;67.95;100240.28;4866386;29;19916;-79
2024/02/25 04:00:20;;;;;;;;;;;;;;;9.17;68.63;100243.63;4878279;29;19915;-79
2024/02/25 04:03:12;;;;;;;;;;;;;;;9.15;68.64;100237.72;4876790;29;19920;-80
2024/02/25 04:06:04;;;;;;;;;;;;;;;9.10;68.52;100240.59;4880315;29;19919;-79
2024/02/25 04:08:56;;;;;;;;;;;;;;;9.08;68.66;100246.34;4873778;29;19916;-78
2024/02/25 04:11:48;;;;;;;;;;;;;;;9.11;69.86;100231.34;4867748;29;19916;-80
2024/02/25 04:14:40;;;;;;;;;;;;;;;9.22;69.51;100238.88;4885772;29;20286;-79
2024/02/25 04:17:32;;;;;;;;;;;;;;;9.21;68.98;100250.03;4879485;29;20370;-80
2024/02/25 04:20:24;;;;;;;;;;;;;;;9.25;68.77;100243.66;4884846;29;20441;-79
2024/02/25 04:23:21;;;;;;;;;;;;;;;9.32;68.68;100248.59;4880742;29;20293;-79
2024/02/25 04:26:13;;;;;;;;;;;;;;;9.42;67.94;100249.09;4884285;29;19916;-79
2024/02/25 04:29:05;;;;;;;;;;;;;;;9.42;67.71;100259.94;4881804;29;19919;-78
2024/02/25 04:31:55;;;;;;;;;;;;;;;9.48;67.75;100257.06;4880401;29;20400;-79
2024/02/25 04:34:46;;;;;;;;;;;;;;;9.36;68.80;100252.28;4883328;29;19915;-79
2024/02/25 04:37:39;;;;;;;;;;;;;;;9.31;67.87;100247.81;4881230;29;19916;-78
2024/02/25 04:40:30;;;;;;;;;;;;;;;9.35;68.15;100250.66;4842029;29;1127596;-77
2024/02/25 04:43:22;;;;;;;;;;;;;;;9.41;68.13;100252.13;4883827;29;19920;-79
2024/02/25 04:46:15;;;;;;;;;;;;;;;9.51;67.84;100256.44;4868016;29;20302;-79
2024/02/25 04:49:07;;;;;;;;;;;;;;;9.57;67.65;100250.53;4879125;29;19916;-79
2024/02/25 04:52:04;;;;;;;;;;;;;;;9.56;67.85;100258.97;4869743;29;19920;-79
2024/02/25 04:54:56;;;;;;;;;;;;;;;9.50;67.81;100249.44;4854936;29;19920;-79
2024/02/25 04:57:48;;;;;;;;;;;;;;;9.45;67.50;100253.06;4864995;29;19916;-79
2024/02/25 05:00:40;;;;;;;;;;;;;;;9.51;67.66;100257.22;4858998;29;19919;-78
2024/02/25 05:03:32;;;;;;;;;;;;;;;9.58;67.65;100257.56;4861590;29;19919;-78
2024/02/25 05:06:24;;;;;;;;;;;;;;;9.55;67.94;100251.97;4864820;29;19916;-78
2024/02/25 05:09:16;;;;;;;;;;;;;;;9.52;67.67;100258.84;4862314;29;20382;-79
2024/02/25 05:12:11;;;;;;;;;;;;;;;9.44;68.06;100255.00;4862037;29;19916;-78
2024/02/25 05:15:03;;;;;;;;;;;;;;;9.43;68.05;100261.56;4863603;29;20461;-78
2024/02/25 05:17:55;;;;;;;;;;;;;;;9.34;67.97;100262.66;4866014;29;19916;-79
2024/02/25 05:20:47;;;;;;;;;;;;;;;9.33;68.12;100261.88;4865062;29;19919;-78
2024/02/25 05:23:39;;;;;;;;;;;;;;;9.34;68.11;100263.47;4862826;29;19920;-79
2024/02/25 05:26:31;;;;;;;;;;;;;;;9.38;68.06;100267.13;4866125;29;20290;-79
2024/02/25 05:29:23;;;;;;;;;;;;;;;9.37;68.35;100270.97;4866881;29;19916;-78
2024/02/25 05:32:15;;;;;;;;;;;;;;;9.35;68.03;100265.03;4861942;29;19916;-78
2024/02/25 05:35:08;;;;;;;;;;;;;;;9.30;67.81;100269.81;4865740;29;20370;-79
2024/02/25 05:38:05;;;;;;;;;;;;;;;9.31;67.97;100274.94;4862116;29;19946;-79
2024/02/25 05:40:57;;;;;;;;;;;;;;;9.31;67.88;100264.09;4855006;29;19928;-78
2024/02/25 05:43:46;;;;;;;;;;;;;;;9.36;67.87;100265.84;4866901;29;19924;-79
2024/02/25 05:46:38;;;;;;;;;;;;;;;9.38;68.29;100260.91;4862247;29;19916;-77
2024/02/25 05:49:30;;;;;;;;;;;;;;;9.42;68.12;100259.94;4866633;29;19915;-78
2024/02/25 05:52:20;;;;;;;;;;;;;;;9.42;67.87;100265.38;4858515;29;19920;-78
2024/02/25 05:55:17;;;;;;;;;;;;;;;9.37;68.32;100268.25;4861298;29;19920;-79
2024/02/25 05:58:08;;;;;;;;;;;;;;;9.39;67.94;100268.75;4864441;29;19916;-78
2024/02/25 06:01:00;;;;;;;;;;;;;;;9.33;68.76;100267.28;4862481;29;19916;-79
2024/02/25 06:03:50;;;;;;;;;;;;;;;9.38;68.89;100263.63;4858299;29;19920;-78
2024/02/25 06:06:42;;;;;;;;;;;;;;;9.33;68.07;100264.56;4853219;29;19924;-78
2024/02/25 06:09:34;;;;;;;;;;;;;;;9.34;68.11;100263.47;4857435;29;20476;-77
2024/02/25 06:12:23;;;;;;;;;;;;;;;9.40;67.83;100262.16;4860324;29;19916;-78
2024/02/25 06:15:18;;;;;;;;;;;;;;;9.35;67.96;100261.53;4863194;29;19916;-79
2024/02/25 06:18:11;;;;;;;;;;;;;;;9.35;68.41;100261.53;4861907;29;19916;-79
2024/02/25 06:21:03;;;;;;;;;;;;;;;9.29;68.72;100269.06;4850906;29;19920;-78
2024/02/25 06:23:53;;;;;;;;;;;;;;;9.32;68.56;100273.81;4862400;29;19916;-79
2024/02/25 06:26:48;;;;;;;;;;;;;;;9.31;68.54;100274.94;4860746;29;20291;-79
2024/02/25 06:29:41;;;;;;;;;;;;;;;9.28;68.84;100269.34;4849534;29;20085;-79
2024/02/25 06:32:31;;;;;;;;;;;;;;;9.27;69.31;100271.25;4861902;29;19920;-80
2024/02/25 06:35:24;;;;;;;;;;;;;;;9.29;69.14;100270.97;4867926;29;19915;-79
2024/02/25 06:38:58;;;;;;;;;;;;;;;9.25;69.37;100276.19;4880761;29;19915;-80
2024/02/25 06:42:09;;;;;;;;;;;;;;;9.34;70.06;100278.94;4878843;29;19919;-80
2024/02/25 06:45:07;;;;;;;;;;;;;;;9.29;69.70;100287.25;4879708;29;20293;-80
2024/02/25 06:48:02;;;;;;;;;;;;;;;9.26;69.93;100283.22;4832951;29;19920;-80
2024/02/25 06:50:59;;;;;;;;;;;;;;;9.28;70.06;100289.16;4844028;29;19920;-80
2024/02/25 06:53:51;;;;;;;;;;;;;;;9.37;70.09;100300.81;4846877;29;19916;-80
2024/02/25 06:56:45;;;;;;;;;;;;;;;9.40;69.61;100291.22;4844932;29;19920;-80
2024/02/25 06:59:37;;;;;;;;;;;;;;;9.47;69.17;100290.75;4842957;29;20379;-80
2024/02/25 07:02:29;;;;;;;;;;;;;;;9.49;69.89;100296.69;4840983;29;19944;-80
2024/02/25 07:05:31;;;;;;;;;;;;;;;9.52;69.71;100296.84;4843628;29;19916;-79
2024/02/25 07:08:27;;;;;;;;;;;;;;;9.59;69.56;100297.16;4841264;29;19920;-79
2024/02/25 07:11:27;;;;;;;;;;;;;;;9.68;70.30;100295.25;4830358;29;19920;-80
2024/02/25 07:14:21;;;;;;;;;;;;;;;9.58;70.84;100295.56;4838211;29;19916;-80
2024/02/25 07:17:13;;;;;;;;;;;;;;;9.58;71.35;100297.47;4855677;29;19915;-80
2024/02/25 07:20:05;;;;;;;;;;;;;;;9.68;71.05;100295.25;4847891;29;19915;-80
2024/02/25 07:22:57;;;;;;;;;;;;;;;9.68;70.36;100295.25;4859321;29;19920;-80
2024/02/25 07:25:50;;;;;;;;;;;;;;;9.71;70.59;100294.59;4862904;29;19920;-79
2024/02/25 07:28:45;;;;;;;;;;;;;;;9.78;71.01;100302.28;4860748;29;19916;-80
2024/02/25 07:31:37;;;;;;;;;;;;;;;9.75;71.24;100300.97;4861329;29;19920;-80
2024/02/25 07:34:29;;;;;;;;;;;;;;;9.83;71.55;100302.91;4861928;29;19916;-79
2024/02/25 07:37:20;;;;;;;;;;;;;;;9.92;71.01;100308.34;4859727;29;19916;-80
2024/02/25 07:40:33;;;;;;;;;;;;;;;9.93;71.05;100301.78;4864489;29;19924;-80
2024/02/25 07:43:27;;;;;;;;;;;;;;;10.01;71.12;100303.69;4863847;29;20382;-80
2024/02/25 07:46:25;;;;;;;;;;;;;;;10.07;71.90;100296.97;4867536;29;19916;-80
2024/02/25 07:49:21;;;;;;;;;;;;;;;10.15;71.88;100296.19;4868818;29;19916;-80
2024/02/25 07:52:16;;;;;;;;;;;;;;;10.16;71.63;100289.63;4866042;29;19916;-80
2024/02/25 07:55:05;;;;;;;;;;;;;;;10.19;71.95;100297.16;4868613;29;19919;-79
2024/02/25 07:58:05;;;;;;;;;;;;;;;10.84;69.80;100298.69;4855221;29;19920;-83
2024/02/25 08:04:20;;;;;;;;;;;;;;;11.48;65.39;100293.84;4335289;23;19931;-81
2024/02/25 08:07:16;;;;;;;;;;;;;;;11.60;65.99;100287.66;4869902;29;19928;-80
2024/02/25 08:10:01;;;;;;;;;;;;;;;11.84;64.43;100282.38;4879695;29;19923;-81
2024/02/25 08:12:59;;;;;;;;;;;;;;;12.38;63.90;100279.59;4859491;29;19917;-81
2024/02/25 08:19:06;;;;;;;;;;;;;;;13.32;62.29;100280.31;4845495;29;19924;-82
2024/02/25 08:21:58;;;;;;;;;;;;;;;13.34;59.70;100277.25;4844966;29;19920;-82
2024/02/25 08:24:52;;;;;;;;;;;;;;;13.67;60.14;100283.31;4845642;29;19916;-82
2024/02/25 08:27:44;;;;;;;;;;;;;;;13.58;60.18;100277.19;4835051;29;19920;-80
2024/02/25 08:30:36;;;;;;;;;;;;;;;13.67;58.28;100292.31;4833389;29;19920;-81
2024/02/25 08:33:28;;;;;;;;;;;;;;;13.73;56.90;100289.34;4857946;29;20522;-82
2024/02/25 08:36:20;;;;;;;;;;;;;;;14.01;56.91;100290.16;4844691;29;19920;-86
2024/02/25 08:39:12;;;;;;;;;;;;;;;13.91;56.47;100290.66;4849643;29;20390;-80
2024/02/25 08:42:04;;;;;;;;;;;;;;;14.32;55.92;100303.91;4848282;29;20406;-81
2024/02/25 08:44:56;;;;;;;;;;;;;;;14.64;55.07;100302.03;4850003;29;19920;-81
2024/02/25 08:47:48;;;;;;;;;;;;;;;14.61;54.65;100299.22;4843704;29;20302;-81
2024/02/25 08:50:40;;;;;;;;;;;;;;;14.80;54.82;100291.09;4837517;29;20318;-80
2024/02/25 08:53:32;;;;;;;;;;;;;;;14.45;55.95;100294.50;4845347;29;19917;-81
2024/02/25 08:56:22;;;;;;;;;;;;;;;14.72;55.07;100301.06;4859143;29;19919;-80
2024/02/25 08:59:14;;;;;;;;;;;;;;;14.85;55.63;100302.56;4837875;29;19916;-84
2024/02/25 09:02:06;;;;;;;;;;;;;;;14.44;55.69;100303.06;4837023;29;19920;-82
2024/02/25 09:04:58;;;;;;;;;;;;;;;14.83;55.45;100304.06;4834577;29;19916;-81
2024/02/25 09:07:50;;;;;;;;;;;;;;;14.94;54.81;100299.63;4843335;29;19917;-81
2024/02/25 09:10:42;;;;;;;;;;;;;;;15.55;52.60;100301.84;4820037;29;19921;-79
2024/02/25 09:13:34;;;;;;;;;;;;;;;16.25;51.65;100292.31;4836168;29;19920;-80
2024/02/25 09:16:23;;;;;;;;;;;;;;;16.45;49.44;100290.34;4837681;29;19916;-81
2024/02/25 09:19:15;;;;;;;;;;;;;;;16.82;49.22;100293.34;4829888;29;19916;-80
2024/02/25 09:22:07;;;;;;;;;;;;;;;17.44;45.49;100299.41;4842282;29;19924;-79
2024/02/25 09:24:59;;;;;;;;;;;;;;;17.55;45.52;100297.59;4842688;29;19916;-79
2024/02/25 09:27:51;;;;;;;;;;;;;;;17.66;45.56;100293.09;4842214;29;19916;-80
2024/02/25 09:30:43;;;;;;;;;;;;;;;17.78;44.26;100284.56;4832906;29;19917;-80
2024/02/25 09:33:35;;;;;;;;;;;;;;;17.55;44.31;100281.09;4829769;29;19916;-80
2024/02/25 09:36:27;;;;;;;;;;;;;;;17.15;45.42;100281.72;4843015;29;20306;-79
2024/02/25 09:39:19;;;;;;;;;;;;;;;16.38;46.50;100276.50;4828652;29;19924;-80
2024/02/25 09:42:09;;;;;;;;;;;;;;;16.72;47.08;100284.94;4824092;29;19920;-79
2024/02/25 09:45:03;;;;;;;;;;;;;;;17.76;43.32;100286.94;4840233;29;19916;-80
2024/02/25 09:47:53;;;;;;;;;;;;;;;18.52;41.56;100281.84;4830684;29;19917;-79
2024/02/25 09:50:45;;;;;;;;;;;;;;;18.76;41.52;100284.06;4829119;29;19916;-80
2024/02/25 09:53:38;;;;;;;;;;;;;;;18.18;42.73;100285.84;4831807;29;19916;-80
2024/02/25 09:56:30;;;;;;;;;;;;;;;18.68;42.56;100281.66;4844205;29;19916;-80
2024/02/25 09:59:22;;;;;;;;;;;;;;;18.55;42.58;100283.88;4844098;29;19916;-79
2024/02/25 10:02:14;;;;;;;;;;;;;;;18.45;41.79;100281.00;4855395;29;19924;-81
2024/02/25 10:05:06;;;;;;;;;;;;;;;19.05;40.90;100282.31;4853499;29;19916;-81
2024/02/25 10:08:10;;;;;;;;;;;;;;;19.15;39.62;100284.34;4845954;29;19916;-79
2024/02/25 10:11:02;;;;;;;;;;;;;;;19.74;38.64;100276.06;4828598;29;19916;-81
2024/02/25 10:13:51;;;;;;;;;;;;;;;20.47;35.89;100272.75;4841802;29;19920;-81
2024/02/25 10:16:40;;;;;;;;;;;;;;;22.25;32.39;100275.19;4831122;29;19917;-81
2024/02/25 10:19:31;;;;;;;;;;;;;;;28.45;25.42;100293.25;4844165;29;19916;-82
2024/02/25 10:22:23;;;;;;;;;;;;;;;33.28;19.67;100296.63;4830525;29;19925;-81
2024/02/25 10:25:13;;;;;;;;;;;;;;;32.86;18.52;100294.72;4842973;29;19924;-82
2024/02/25 10:28:16;;;;;;;;;;;;;;;31.95;19.08;100289.38;4838128;29;19916;-84
2024/02/25 10:31:08;;;;;;;;;;;;;;;36.55;15.90;100293.25;4840478;29;20395;-82
2024/02/25 10:33:58;;;;;;;;;;;;;;;30.00;20.37;100286.34;4844316;29;19917;-81
2024/02/25 10:36:50;;;;;;;;;;;;;;;34.33;17.48;100289.38;4832102;29;19924;-82
2024/02/25 10:39:41;;;;;;;;;;;;;;;34.45;16.99;100279.00;4829067;29;19916;-82
2024/02/25 10:42:33;;;;;;;;;;;;;;;31.72;19.08;100278.81;4833261;29;20390;-82
2024/02/25 10:45:26;;;;;;;;;;;;;;;36.43;15.96;100284.69;4844711;29;19920;-82
2024/02/25 10:48:18;;;;;;;;;;;;;;;38.01;14.01;100288.47;4833889;29;20290;-83
2024/02/25 10:51:11;;;;;;;;;;;;;;;28.42;21.24;100266.16;4838290;29;20309;-82
2024/02/25 10:54:01;;;;;;;;;;;;;;;27.68;23.12;100265.59;4849863;29;19916;-81
2024/02/25 10:56:53;;;;;;;;;;;;;;;33.53;16.88;100267.91;4861767;29;19916;-83
2024/02/25 10:59:45;;;;;;;;;;;;;;;38.16;13.17;100265.47;4859603;29;19920;-83
2024/02/25 11:02:35;;;;;;;;;;;;;;;30.48;18.98;100259.59;4846533;29;19920;-83
2024/02/25 11:05:26;;;;;;;;;;;;;;;29.74;20.71;100257.63;4833022;29;19916;-82
2024/02/25 11:08:51;;;;;;;;;;;;;;;27.31;22.87;100239.06;4832298;29;20402;-82
2024/02/25 11:11:43;;;;;;;;;;;;;;;30.01;19.34;100242.25;4797894;29;19917;-82
2024/02/25 11:14:35;;;;;;;;;;;;;;;36.63;14.78;100251.84;4828638;29;19924;-83
2024/02/25 11:17:30;;;;;;;;;;;;;;;36.26;14.57;100240.53;4833683;29;19916;-83
2024/02/25 11:20:25;;;;;;;;;;;;;;;26.62;23.27;100232.06;4841336;29;19916;-83
2024/02/25 11:23:41;;;;;;;;;;;;;;;23.08;28.33;100227.00;4831438;29;19920;-83
2024/02/25 11:26:41;;;;;;;;;;;;;;;21.82;30.68;100224.75;4841457;29;19916;-82
2024/02/25 11:29:33;;;;;;;;;;;;;;;21.09;32.78;100210.72;4844387;29;19916;-83
2024/02/25 11:32:32;;;;;;;;;;;;;;;20.34;33.02;100210.78;4841689;29;20332;-83
2024/02/25 11:35:26;;;;;;;;;;;;;;;19.46;34.76;100216.03;4831886;29;19916;-82
2024/02/25 11:38:22;;;;;;;;;;;;;;;19.32;34.96;100208.47;4830077;29;19916;-82
2024/02/25 11:41:14;;;;;;;;;;;;;;;18.75;36.85;100204.56;4842288;29;20291;-83
2024/02/25 11:44:07;;;;;;;;;;;;;;;18.36;37.54;100199.50;4831261;29;19924;-83
2024/02/25 11:46:59;;;;;;;;;;;;;;;18.20;37.28;100196.22;4843002;29;19916;-82
2024/02/25 11:49:51;;;;;;;;;;;;;;;18.24;38.05;100199.78;4832261;29;20237;-82
2024/02/25 11:52:40;;;;;;;;;;;;;;;17.66;38.82;100193.28;4829950;29;19920;-82
2024/02/25 11:55:32;;;;;;;;;;;;;;;17.32;39.92;100193.22;4842044;29;20298;-82
2024/02/25 11:58:22;;;;;;;;;;;;;;;17.10;40.22;100194.91;4831444;29;19916;-82
2024/02/25 12:01:14;;;;;;;;;;;;;;;17.40;40.75;100186.66;4839673;29;19916;-83
2024/02/25 12:04:06;;;;;;;;;;;;;;;17.28;40.42;100181.41;4827499;29;19920;-82
2024/02/25 12:06:58;;;;;;;;;;;;;;;17.14;41.26;100181.22;4841537;29;20382;-83
2024/02/25 12:09:48;;;;;;;;;;;;;;;17.47;41.46;100174.97;4830084;29;19916;-82
2024/02/25 12:12:40;;;;;;;;;;;;;;;16.95;40.01;100170.38;4832509;29;20006;-83
2024/02/25 12:15:31;;;;;;;;;;;;;;;26.48;26.52;100182.22;4830209;29;20648;-84
2024/02/25 12:18:22;;;;;;;;;;;;;;;32.12;17.11;100172.44;4842057;29;19917;-82
2024/02/25 12:21:14;;;;;;;;;;;;;;;31.98;17.38;100170.31;4843802;29;19916;-83
2024/02/25 12:24:05;;;;;;;;;;;;;;;33.62;17.06;100177.59;4846562;29;20314;-82
2024/02/25 12:26:56;;;;;;;;;;;;;;;36.41;13.92;100185.28;4833632;29;19916;-82
2024/02/25 12:29:49;;;;;;;;;;;;;;;28.22;20.71;100156.53;4847971;29;19920;-82
2024/02/25 12:32:41;;;;;;;;;;;;;;;24.32;25.29;100154.03;4849697;29;20306;-82
2024/02/25 12:35:33;;;;;;;;;;;;;;;21.96;28.99;100147.94;4830273;29;19920;-82
2024/02/25 12:38:22;;;;;;;;;;;;;;;20.55;31.54;100151.22;4833752;29;19917;-82
2024/02/25 12:41:15;;;;;;;;;;;;;;;19.15;34.32;100145.75;4832107;29;19916;-82
2024/02/25 12:44:05;;;;;;;;;;;;;;;20.40;32.02;100142.94;4848487;29;19920;-82
2024/02/25 12:47:02;;;;;;;;;;;;;;;20.15;33.20;100138.56;4836700;29;19916;-83
2024/02/25 12:49:53;;;;;;;;;;;;;;;19.34;31.36;100126.16;4830671;29;19916;-82
2024/02/25 12:52:45;;;;;;;;;;;;;;;19.08;33.03;100123.69;4834558;29;19916;-82
2024/02/25 12:55:37;;;;;;;;;;;;;;;18.79;34.34;100123.50;4831811;29;19916;-81
2024/02/25 12:58:29;;;;;;;;;;;;;;;18.83;34.25;100120.81;4829395;29;20398;-82
2024/02/25 13:01:21;;;;;;;;;;;;;;;18.51;36.73;100120.56;4846554;29;19916;-82
2024/02/25 13:04:16;;;;;;;;;;;;;;;18.16;36.29;100112.84;4826022;29;20011;-82
2024/02/25 13:07:08;;;;;;;;;;;;;;;18.05;37.66;100108.41;4826299;29;19921;-81
2024/02/25 13:10:00;;;;;;;;;;;;;;;17.95;38.82;100110.69;4835496;29;19920;-81
2024/02/25 13:12:52;;;;;;;;;;;;;;;17.72;39.22;100109.28;4840464;29;19916;-80
2024/02/25 13:15:41;;;;;;;;;;;;;;;17.75;38.21;100109.31;4846789;29;19916;-81
2024/02/25 13:18:33;;;;;;;;;;;;;;;17.54;37.84;100107.09;4845275;29;20289;-81
2024/02/25 13:21:25;;;;;;;;;;;;;;;17.44;38.13;100107.78;4843200;29;19916;-81
2024/02/25 13:24:17;;;;;;;;;;;;;;;17.28;38.85;100100.91;4835602;29;19920;-81
2024/02/25 13:27:11;;;;;;;;;;;;;;;17.33;38.53;100097.81;4844704;29;19928;-81
2024/02/25 13:30:03;;;;;;;;;;;;;;;17.24;38.56;100098.13;4848167;29;19916;-81
2024/02/25 13:32:55;;;;;;;;;;;;;;;17.40;39.24;100100.66;4832051;29;20390;-81
2024/02/25 13:35:47;;;;;;;;;;;;;;;17.26;39.52;100093.06;4829954;29;19916;-82
2024/02/25 13:38:39;;;;;;;;;;;;;;;17.37;39.24;100087.69;4832319;29;19920;-82
2024/02/25 13:41:31;;;;;;;;;;;;;;;17.36;39.37;100092.38;4832198;29;19920;-80
2024/02/25 13:44:23;;;;;;;;;;;;;;;17.15;40.62;100075.66;4839875;29;20378;-82
2024/02/25 13:47:15;;;;;;;;;;;;;;;17.13;40.45;100077.97;4849105;29;19917;-83
2024/02/25 13:50:06;;;;;;;;;;;;;;;17.21;40.22;100076.13;4830998;29;20310;-80
2024/02/25 13:52:58;;;;;;;;;;;;;;;17.19;40.41;100073.72;4846411;29;20313;-80
2024/02/25 13:55:51;;;;;;;;;;;;;;;17.25;40.43;100074.97;4830251;29;20011;-81
2024/02/25 13:58:43;;;;;;;;;;;;;;;17.39;40.36;100077.09;4840192;29;19916;-81
2024/02/25 14:01:33;;;;;;;;;;;;;;;17.33;39.85;100070.34;4844379;29;19916;-81
2024/02/25 14:04:25;;;;;;;;;;;;;;;17.38;40.13;100061.75;4848130;29;19924;-80
2024/02/25 14:07:17;;;;;;;;;;;;;;;17.41;40.67;100058.28;4829004;29;20363;-80
2024/02/25 14:10:12;;;;;;;;;;;;;;;17.36;39.86;100058.63;4819922;29;19916;-80
2024/02/25 14:13:02;;;;;;;;;;;;;;;17.24;38.97;100056.13;4860225;29;19916;-81
2024/02/25 14:15:54;;;;;;;;;;;;;;;17.24;39.03;100059.66;4847287;29;19917;-80
2024/02/25 14:18:51;;;;;;;;;;;;;;;17.23;39.93;100062.78;4843885;29;19916;-81
2024/02/25 14:21:41;;;;;;;;;;;;;;;17.21;39.72;100074.16;4835871;29;19916;-80
2024/02/25 14:24:33;;;;;;;;;;;;;;;17.15;38.76;100069.38;4842567;29;20314;-80
2024/02/25 14:27:22;;;;;;;;;;;;;;;17.08;39.72;100072.81;4843227;29;19916;-80
2024/02/25 14:30:15;;;;;;;;;;;;;;;17.04;39.65;100070.03;4833337;29;19917;-80
2024/02/25 14:33:07;;;;;;;;;;;;;;;16.93;39.67;100063.59;4832058;29;19916;-80
2024/02/25 14:35:59;;;;;;;;;;;;;;;16.90;40.13;100058.09;4842803;29;19916;-80
2024/02/25 14:38:51;;;;;;;;;;;;;;;17.05;40.02;100055.13;4832380;29;19924;-81
2024/02/25 14:41:43;;;;;;;;;;;;;;;17.10;39.22;100054.81;4830232;29;19917;-80
2024/02/25 14:44:36;;;;;;;;;;;;;;;17.22;39.67;100058.47;4828545;29;19924;-80
2024/02/25 14:47:28;;;;;;;;;;;;;;;17.27;38.90;100060.88;4833861;29;20374;-82
2024/02/25 14:50:17;;;;;;;;;;;;;;;17.33;39.02;100056.59;4842751;29;19917;-80
2024/02/25 14:53:07;;;;;;;;;;;;;;;17.24;39.06;100054.16;4827972;29;19920;-80
2024/02/25 14:55:57;;;;;;;;;;;;;;;17.18;39.67;100047.41;4830567;29;19920;-80
2024/02/25 14:58:49;;;;;;;;;;;;;;;17.06;39.71;100051.22;4842626;29;20295;-80